Time;durP1;ratioP1;P1;durP2;ratioP2;P2;SDS_P1;SDS_P2;PMS_P1;PMS_P2;Temp;Humidity;BMP_temperature;BMP_pressure;BME280_temperature;BME280_humidity;BME280_pressure;Samples;Min_cycle;Max_cycle;Signal;HPM_P1;HPM_P2
2021/03/16 00:01:20;;;;;;;;;;;;;;;2.90;100.00;100229.63;5072394;28;19928;-68
2021/03/16 00:04:01;;;;;;;;;;;;;;;2.90;100.00;100234.97;5054516;28;20039;-68
2021/03/16 00:06:42;;;;;;;;;;;;;;;2.88;100.00;100236.91;5072060;28;19943;-68
2021/03/16 00:09:08;;;;;;;;;;;;;;;2.90;100.00;100232.28;5072218;28;20015;-68
2021/03/16 00:11:34;;;;;;;;;;;;;;;2.90;100.00;100234.97;5072165;28;19928;-69
2021/03/16 00:14:01;;;;;;;;;;;;;;;2.91;100.00;100242.94;5071606;28;20424;-69
2021/03/16 00:16:27;;;;;;;;;;;;;;;2.89;100.00;100242.16;5071824;28;19932;-68
2021/03/16 00:18:53;;;;;;;;;;;;;;;2.91;100.00;100242.94;5072008;28;19924;-69
2021/03/16 00:21:19;;;;;;;;;;;;;;;2.92;100.00;100252.72;5072087;28;19979;-68
2021/03/16 00:23:45;;;;;;;;;;;;;;;2.90;100.00;100243.91;5072084;28;19951;-68
2021/03/16 00:26:11;;;;;;;;;;;;;;;2.92;100.00;100249.16;5071726;28;19978;-67
2021/03/16 00:28:37;;;;;;;;;;;;;;;2.92;100.00;100249.16;5072088;28;19925;-68
2021/03/16 00:31:03;;;;;;;;;;;;;;;2.90;100.00;100256.44;5071719;28;19924;-67
2021/03/16 00:33:29;;;;;;;;;;;;;;;2.90;100.00;100261.78;5071876;28;19971;-68
2021/03/16 00:35:55;;;;;;;;;;;;;;;2.89;100.00;100252.91;5071662;28;19932;-68
2021/03/16 00:38:21;;;;;;;;;;;;;;;2.91;100.00;100266.22;5071599;28;20011;-67
2021/03/16 00:40:47;;;;;;;;;;;;;;;2.91;100.00;100264.38;5071713;28;20420;-68
2021/03/16 00:43:13;;;;;;;;;;;;;;;2.90;100.00;100261.78;5071752;28;19928;-68
2021/03/16 00:45:38;;;;;;;;;;;;;;;2.92;100.00;100265.25;5071576;28;20041;-68
2021/03/16 00:48:06;;;;;;;;;;;;;;;2.91;100.00;100280.47;5053731;28;19924;-68
2021/03/16 00:50:32;;;;;;;;;;;;;;;2.92;100.00;100268.78;5071656;28;20374;-67
2021/03/16 00:52:58;;;;;;;;;;;;;;;2.95;100.00;100281.16;5053660;28;19931;-68
2021/03/16 00:55:24;;;;;;;;;;;;;;;2.95;100.00;100283.84;5053657;28;19925;-68
2021/03/16 00:57:50;;;;;;;;;;;;;;;2.96;100.00;100282.91;5053332;28;19924;-68
2021/03/16 01:00:17;;;;;;;;;;;;;;;2.95;100.00;100289.22;5071540;28;20390;-67
2021/03/16 01:02:43;;;;;;;;;;;;;;;2.93;100.00;100289.31;5071170;28;20019;-68
2021/03/16 01:05:10;;;;;;;;;;;;;;;2.94;100.00;100296.41;5071216;28;20313;-68
2021/03/16 01:07:36;;;;;;;;;;;;;;;2.95;100.00;100294.56;5071192;28;20452;-68
2021/03/16 01:10:04;;;;;;;;;;;;;;;2.94;100.00;100300.88;5071497;28;20018;-68
2021/03/16 01:12:30;;;;;;;;;;;;;;;2.92;100.00;100294.75;5071435;28;19947;-68
2021/03/16 01:14:56;;;;;;;;;;;;;;;2.92;100.00;100308.16;5071486;28;19924;-67
2021/03/16 01:17:22;;;;;;;;;;;;;;;2.89;100.00;100305.66;5071060;28;19932;-67
2021/03/16 01:19:48;;;;;;;;;;;;;;;2.91;100.00;100304.59;5071432;28;19924;-68
2021/03/16 01:22:14;;;;;;;;;;;;;;;2.84;100.00;100306.75;5053492;28;20429;-67
2021/03/16 01:24:40;;;;;;;;;;;;;;;2.78;100.00;100304.44;5073856;28;19935;-68
2021/03/16 01:27:06;;;;;;;;;;;;;;;2.77;100.00;100310.75;5075035;28;19924;-68
2021/03/16 01:29:32;;;;;;;;;;;;;;;2.74;100.00;100316.28;5075288;28;19947;-68
2021/03/16 01:31:58;;;;;;;;;;;;;;;2.71;100.00;100319.09;5075185;28;20457;-67
2021/03/16 01:34:25;;;;;;;;;;;;;;;2.72;100.00;100311.94;5075178;28;19928;-67
2021/03/16 01:36:50;;;;;;;;;;;;;;;2.70;100.00;100316.50;5074906;28;19925;-67
2021/03/16 01:39:17;;;;;;;;;;;;;;;2.68;100.00;100312.09;5057258;28;19925;-67
2021/03/16 01:41:43;;;;;;;;;;;;;;;2.70;100.00;100313.84;5075140;28;19947;-67
2021/03/16 01:44:09;;;;;;;;;;;;;;;2.69;100.00;100318.34;5075074;28;20405;-68
2021/03/16 01:46:35;;;;;;;;;;;;;;;2.73;100.00;100316.38;5074697;28;19925;-69
2021/03/16 01:49:01;;;;;;;;;;;;;;;2.74;100.00;100321.66;5075054;28;19928;-67
2021/03/16 01:51:27;;;;;;;;;;;;;;;2.77;100.00;100320.63;5075023;28;20408;-68
2021/03/16 01:53:52;;;;;;;;;;;;;;;2.79;100.00;100322.25;5074683;28;19932;-67
2021/03/16 01:56:20;;;;;;;;;;;;;;;2.79;100.00;100316.91;5074462;28;20011;-67
2021/03/16 01:59:04;;;;;;;;;;;;;;;2.78;100.00;100315.16;5074759;28;20101;-67
2021/03/16 02:01:49;;;;;;;;;;;;;;;2.80;100.00;100323.97;5074740;28;19967;-67
2021/03/16 02:04:33;;;;;;;;;;;;;;;2.81;100.00;100325.69;5074814;28;19939;-67
2021/03/16 02:07:19;;;;;;;;;;;;;;;2.82;100.00;100329.28;5074262;28;20306;-67
2021/03/16 02:10:07;;;;;;;;;;;;;;;2.81;100.00;100332.88;5074576;28;19935;-67
2021/03/16 02:12:58;;;;;;;;;;;;;;;2.76;100.00;100324.22;5074560;28;19924;-67
2021/03/16 02:15:44;;;;;;;;;;;;;;;2.75;100.00;100343.94;5074148;28;19939;-68
2021/03/16 02:18:33;;;;;;;;;;;;;;;2.76;100.00;100345.69;5074261;28;19931;-68
2021/03/16 02:21:19;;;;;;;;;;;;;;;2.71;100.00;100355.78;5074330;28;19977;-68
2021/03/16 02:24:16;;;;;;;;;;;;;;;2.70;100.00;100356.72;5074234;28;19978;-68
2021/03/16 02:27:07;;;;;;;;;;;;;;;2.68;100.00;100349.63;5073900;28;19962;-68
2021/03/16 02:29:53;;;;;;;;;;;;;;;2.70;100.00;100359.41;5074113;28;20412;-68
2021/03/16 02:32:38;;;;;;;;;;;;;;;2.68;100.00;100368.38;5074015;28;20382;-68
2021/03/16 02:35:24;;;;;;;;;;;;;;;2.65;100.00;100365.03;5073299;28;19924;-68
2021/03/16 02:38:10;;;;;;;;;;;;;;;2.63;100.00;100373.16;5073753;28;19931;-68
2021/03/16 02:40:56;;;;;;;;;;;;;;;2.62;100.00;100381.25;5074065;28;20165;-68
2021/03/16 02:43:40;;;;;;;;;;;;;;;2.64;100.00;100376.69;5073935;28;20015;-68
2021/03/16 02:46:26;;;;;;;;;;;;;;;2.62;100.00;100379.47;5073600;28;20005;-68
2021/03/16 02:49:12;;;;;;;;;;;;;;;2.60;100.00;100380.47;5073837;28;19978;-68
2021/03/16 02:51:57;;;;;;;;;;;;;;;2.62;100.00;100394.66;5073591;28;20392;-68
2021/03/16 02:54:42;;;;;;;;;;;;;;;2.60;100.00;100400.09;5055566;28;20337;-68
2021/03/16 02:57:28;;;;;;;;;;;;;;;2.59;100.00;100397.50;5073468;28;20409;-68
2021/03/16 03:00:13;;;;;;;;;;;;;;;2.56;100.00;100397.69;5073559;28;20017;-68
2021/03/16 03:02:59;;;;;;;;;;;;;;;2.57;100.00;100402.09;5073529;28;20435;-68
2021/03/16 03:05:43;;;;;;;;;;;;;;;2.56;100.00;100408.41;5073406;28;19971;-68
2021/03/16 03:08:28;;;;;;;;;;;;;;;2.58;100.00;100417.19;5073478;28;19931;-67
2021/03/16 03:11:13;;;;;;;;;;;;;;;2.55;100.00;100410.19;5073399;28;20416;-67
2021/03/16 03:13:58;;;;;;;;;;;;;;;2.51;100.00;100409.50;5073099;28;19987;-68
2021/03/16 03:16:43;;;;;;;;;;;;;;;2.49;100.00;100424.78;5073033;28;19963;-68
2021/03/16 03:19:28;;;;;;;;;;;;;;;2.48;100.00;100412.31;5073470;28;19978;-67
2021/03/16 03:22:16;;;;;;;;;;;;;;;2.48;100.00;100436.44;5073245;28;19982;-67
2021/03/16 03:25:04;;;;;;;;;;;;;;;2.46;100.00;100435.69;5073248;28;19924;-67
2021/03/16 03:27:51;;;;;;;;;;;;;;;2.43;100.00;100435.84;5072774;28;19955;-68
2021/03/16 03:30:36;;;;;;;;;;;;;;;2.42;100.00;100444.81;5072928;28;19931;-68
2021/03/16 03:33:21;;;;;;;;;;;;;;;2.41;100.00;100453.78;5072993;28;19936;-69
2021/03/16 03:36:07;;;;;;;;;;;;;;;2.40;100.00;100446.69;5072808;28;19925;-69
2021/03/16 03:38:53;;;;;;;;;;;;;;;2.37;100.00;100457.59;5072907;28;19932;-69
2021/03/16 03:41:38;;;;;;;;;;;;;;;2.41;100.00;100458.31;5072709;28;19932;-68
2021/03/16 03:44:24;;;;;;;;;;;;;;;2.43;100.00;100464.44;5072899;28;20058;-67
2021/03/16 03:47:10;;;;;;;;;;;;;;;2.41;100.00;100475.22;5071480;28;19978;-67
2021/03/16 03:49:55;;;;;;;;;;;;;;;2.36;100.00;100477.28;5072704;28;19978;-67
2021/03/16 03:52:41;;;;;;;;;;;;;;;2.30;100.00;100475.78;5072590;28;19937;-68
2021/03/16 03:55:27;;;;;;;;;;;;;;;2.29;100.00;100475.88;5072342;28;19931;-67
2021/03/16 03:58:12;;;;;;;;;;;;;;;2.26;100.00;100478.69;5072451;28;19956;-67
2021/03/16 04:00:57;;;;;;;;;;;;;;;2.26;100.00;100482.25;5072445;28;19936;-68
2021/03/16 04:03:42;;;;;;;;;;;;;;;2.26;100.00;100484.03;5072517;28;20004;-68
2021/03/16 04:06:26;;;;;;;;;;;;;;;2.21;100.00;100481.59;5072168;28;20138;-68
2021/03/16 04:09:11;;;;;;;;;;;;;;;2.22;100.00;100487.81;5072243;28;19947;-68
2021/03/16 04:11:56;;;;;;;;;;;;;;;2.21;100.00;100499.50;5072179;28;20332;-68
2021/03/16 04:14:41;;;;;;;;;;;;;;;2.15;100.00;100497.97;5072222;28;19970;-68
2021/03/16 04:17:26;;;;;;;;;;;;;;;2.15;100.00;100498.84;5071900;28;20405;-68
2021/03/16 04:20:11;;;;;;;;;;;;;;;2.14;100.00;100501.63;5072115;28;20255;-68
2021/03/16 04:22:56;;;;;;;;;;;;;;;2.13;100.00;100513.25;5072212;28;19932;-68
2021/03/16 04:25:41;;;;;;;;;;;;;;;2.13;100.00;100514.13;5071977;28;19970;-68
2021/03/16 04:28:25;;;;;;;;;;;;;;;2.11;100.00;100517.81;5071937;28;19971;-68
2021/03/16 04:31:10;;;;;;;;;;;;;;;2.07;100.00;100518.91;5071848;28;19931;-68
2021/03/16 04:33:54;;;;;;;;;;;;;;;2.03;100.00;100526.22;5071990;28;19931;-68
2021/03/16 04:36:38;;;;;;;;;;;;;;;2.00;100.00;100524.59;5071603;28;19924;-68
2021/03/16 04:39:23;;;;;;;;;;;;;;;2.00;100.00;100531.72;5071911;28;20431;-68
2021/03/16 04:42:08;;;;;;;;;;;;;;;1.96;100.00;100538.19;5071705;28;19935;-68
2021/03/16 04:44:53;;;;;;;;;;;;;;;1.94;100.00;100543.63;5071730;28;20062;-67
2021/03/16 04:47:37;;;;;;;;;;;;;;;1.92;100.00;100544.63;5071476;28;19931;-67
2021/03/16 04:50:22;;;;;;;;;;;;;;;1.92;100.00;100553.50;5071669;28;20321;-68
2021/03/16 04:53:07;;;;;;;;;;;;;;;1.93;100.00;100547.22;5071715;28;20015;-68
2021/03/16 04:55:51;;;;;;;;;;;;;;;1.93;100.00;100554.41;5071298;28;20309;-68
2021/03/16 04:58:36;;;;;;;;;;;;;;;1.95;100.00;100564.09;5071381;28;19932;-68
2021/03/16 05:01:20;;;;;;;;;;;;;;;1.96;100.00;100554.25;5071737;28;19959;-67
2021/03/16 05:04:05;;;;;;;;;;;;;;;1.94;100.00;100569.53;5071737;28;19935;-67
2021/03/16 05:06:49;;;;;;;;;;;;;;;1.97;100.00;100566.69;5071340;28;20094;-67
2021/03/16 05:09:34;;;;;;;;;;;;;;;1.95;100.00;100576.59;5071574;28;20016;-67
2021/03/16 05:12:18;;;;;;;;;;;;;;;1.94;100.00;100580.25;5071597;28;19978;-67
2021/03/16 05:15:04;;;;;;;;;;;;;;;1.93;100.00;100576.66;5071587;28;19925;-67
2021/03/16 05:17:48;;;;;;;;;;;;;;;1.93;100.00;100575.81;5071065;28;19932;-67
2021/03/16 05:20:32;;;;;;;;;;;;;;;1.91;100.00;100575.00;5071651;28;19931;-67
2021/03/16 05:23:17;;;;;;;;;;;;;;;1.88;100.00;100577.84;5071653;28;20511;-67
2021/03/16 05:26:01;;;;;;;;;;;;;;;1.92;100.00;100593.66;5071211;28;20001;-67
2021/03/16 05:28:45;;;;;;;;;;;;;;;1.88;100.00;100586.72;5071540;28;19924;-67
2021/03/16 05:31:30;;;;;;;;;;;;;;;1.89;100.00;100587.63;5071325;28;20016;-67
2021/03/16 05:34:15;;;;;;;;;;;;;;;1.92;100.00;100601.69;5071500;28;20394;-68
2021/03/16 05:36:59;;;;;;;;;;;;;;;1.95;100.00;100616.75;5071708;28;19934;-68
2021/03/16 05:39:44;;;;;;;;;;;;;;;1.94;100.00;100610.53;5071469;28;20015;-67
2021/03/16 05:42:28;;;;;;;;;;;;;;;1.90;100.00;100614.31;5071366;28;19925;-66
2021/03/16 05:45:14;;;;;;;;;;;;;;;1.89;100.00;100619.75;5071261;28;20096;-67
2021/03/16 05:47:59;;;;;;;;;;;;;;;1.90;100.00;100625.03;5070937;28;19963;-66
2021/03/16 05:50:44;;;;;;;;;;;;;;;1.87;100.00;100625.16;5071805;28;20061;-66
2021/03/16 05:53:29;;;;;;;;;;;;;;;1.84;100.00;100623.50;5090732;28;19931;-67
2021/03/16 05:56:13;;;;;;;;;;;;;;;1.86;100.00;100625.22;5088005;28;20062;-66
2021/03/16 05:58:58;;;;;;;;;;;;;;;1.84;100.00;100628.84;5088191;28;20336;-66
2021/03/16 06:01:43;;;;;;;;;;;;;;;1.85;100.00;100637.75;5082618;28;20023;-69
2021/03/16 06:04:28;;;;;;;;;;;;;;;1.87;100.00;100637.66;5071040;28;20011;-67
2021/03/16 06:07:13;;;;;;;;;;;;;;;1.89;100.00;100647.38;5082464;28;20423;-66
2021/03/16 06:09:58;;;;;;;;;;;;;;;1.87;100.00;100641.22;5077670;28;19932;-66
2021/03/16 06:12:42;;;;;;;;;;;;;;;1.87;100.00;100651.94;5085505;28;19946;-67
2021/03/16 06:15:27;;;;;;;;;;;;;;;1.87;100.00;100651.94;5073165;28;19947;-67
2021/03/16 06:18:12;;;;;;;;;;;;;;;1.93;100.00;100661.50;5074221;28;19936;-67
2021/03/16 06:20:58;;;;;;;;;;;;;;;1.96;100.00;100674.72;5073276;28;19928;-67
2021/03/16 06:23:50;;;;;;;;;;;;;;;1.95;100.00;100670.31;5054141;28;19925;-67
2021/03/16 06:26:35;;;;;;;;;;;;;;;1.98;100.00;100675.53;5085484;28;19995;-67
2021/03/16 06:29:19;;;;;;;;;;;;;;;2.00;100.00;100684.34;5074958;28;19925;-67
2021/03/16 06:32:10;;;;;;;;;;;;;;;2.08;100.00;100687.53;5073893;28;20001;-67
2021/03/16 06:34:59;;;;;;;;;;;;;;;2.02;100.00;100682.50;5077296;28;20022;-67
2021/03/16 06:37:58;;;;;;;;;;;;;;;2.08;100.00;100690.22;5091734;28;20018;-67
2021/03/16 06:40:43;;;;;;;;;;;;;;;2.07;100.00;100691.19;5083994;28;19925;-67
2021/03/16 06:43:27;;;;;;;;;;;;;;;2.10;100.00;100695.50;5076362;28;19924;-68
2021/03/16 06:46:12;;;;;;;;;;;;;;;2.17;100.00;100703.19;5078823;28;19931;-67
2021/03/16 06:48:56;;;;;;;;;;;;;;;2.21;100.00;100708.41;5064560;28;19947;-66
2021/03/16 06:51:41;;;;;;;;;;;;;;;2.22;100.00;100712.81;5076729;28;19955;-67
2021/03/16 06:54:26;;;;;;;;;;;;;;;2.23;100.00;100707.41;5066867;28;20409;-66
2021/03/16 06:57:12;;;;;;;;;;;;;;;2.25;100.00;100716.22;5076816;28;19925;-66
2021/03/16 07:00:05;;;;;;;;;;;;;;;2.29;100.00;100717.81;5078563;28;19939;-66
2021/03/16 07:02:49;;;;;;;;;;;;;;;2.39;100.00;100712.88;5075934;28;19924;-65
2021/03/16 07:05:34;;;;;;;;;;;;;;;2.41;100.00;100726.22;5064331;28;19931;-66
2021/03/16 07:08:18;;;;;;;;;;;;;;;2.50;100.00;100720.44;5071770;28;19931;-66
2021/03/16 07:11:05;;;;;;;;;;;;;;;2.53;100.00;100731.00;5073347;28;19943;-66
2021/03/16 07:13:49;;;;;;;;;;;;;;;2.62;100.00;100725.19;5073044;28;19932;-66
2021/03/16 07:16:35;;;;;;;;;;;;;;;2.62;100.00;100727.88;5069255;28;20097;-66
2021/03/16 07:19:21;;;;;;;;;;;;;;;2.61;100.00;100731.50;5083943;28;20010;-66
2021/03/16 07:22:06;;;;;;;;;;;;;;;2.57;100.00;100732.59;5076844;28;19985;-66
2021/03/16 07:24:51;;;;;;;;;;;;;;;2.59;100.00;100744.13;5072842;28;19924;-65
2021/03/16 07:27:37;;;;;;;;;;;;;;;2.53;100.00;100741.72;5073084;28;20413;-65
2021/03/16 07:30:21;;;;;;;;;;;;;;;2.49;100.00;100751.72;5072234;28;19931;-66
2021/03/16 07:33:06;;;;;;;;;;;;;;;2.47;100.00;100756.28;5072370;28;19943;-65
2021/03/16 07:35:50;;;;;;;;;;;;;;;2.45;100.00;100763.50;5073608;28;19935;-66
2021/03/16 07:38:36;;;;;;;;;;;;;;;2.53;100.00;100763.16;5072463;28;19935;-64
2021/03/16 07:41:21;;;;;;;;;;;;;;;2.60;100.00;100769.97;5072841;28;19977;-65
2021/03/16 07:44:08;;;;;;;;;;;;;;;2.63;100.00;100782.34;5072544;28;19971;-65
2021/03/16 07:46:56;;;;;;;;;;;;;;;2.63;100.00;100774.31;5072165;28;20034;-65
2021/03/16 07:49:41;;;;;;;;;;;;;;;2.62;100.00;100780.59;5086341;28;19935;-65
2021/03/16 07:52:26;;;;;;;;;;;;;;;2.65;100.00;100783.16;5092678;28;19998;-66
2021/03/16 07:55:11;;;;;;;;;;;;;;;2.63;100.00;100785.91;5075037;28;20021;-66
2021/03/16 07:58:05;;;;;;;;;;;;;;;2.60;100.00;100794.06;5056796;28;19931;-66
2021/03/16 08:00:51;;;;;;;;;;;;;;;2.67;100.00;100795.56;5085078;28;20467;-66
2021/03/16 08:03:35;;;;;;;;;;;;;;;2.74;100.00;100801.50;5077933;28;19936;-65
2021/03/16 08:06:22;;;;;;;;;;;;;;;2.76;100.00;100802.28;5086966;28;20400;-66
2021/03/16 08:09:18;;;;;;;;;;;;;;;2.79;100.00;100807.50;5092363;28;19958;-65
2021/03/16 08:12:04;;;;;;;;;;;;;;;2.84;100.00;100809.97;5091467;28;20027;-65
2021/03/16 08:14:49;;;;;;;;;;;;;;;2.90;100.00;100808.78;5071830;28;19966;-65
2021/03/16 08:17:35;;;;;;;;;;;;;;;2.94;100.00;100807.69;5085461;28;19943;-66
2021/03/16 08:20:22;;;;;;;;;;;;;;;3.03;100.00;100809.94;5079882;28;19932;-66
2021/03/16 08:23:10;;;;;;;;;;;;;;;3.32;100.00;100815.69;5063626;28;20325;-65
2021/03/16 08:25:55;;;;;;;;;;;;;;;3.42;100.00;100814.31;5071120;28;19947;-66
2021/03/16 08:28:46;;;;;;;;;;;;;;;3.30;100.00;100813.09;5067728;28;19931;-66
2021/03/16 08:31:32;;;;;;;;;;;;;;;3.28;100.00;100819.47;5071648;28;19935;-65
2021/03/16 08:34:18;;;;;;;;;;;;;;;3.16;100.00;100818.25;5085630;28;19931;-65
2021/03/16 08:37:03;;;;;;;;;;;;;;;3.04;100.00;100825.09;5061427;28;19930;-65
2021/03/16 08:39:48;;;;;;;;;;;;;;;3.18;100.00;100827.97;5071227;28;20450;-64
2021/03/16 08:42:32;;;;;;;;;;;;;;;3.14;100.00;100830.88;5065033;28;20025;-65
2021/03/16 08:45:26;;;;;;;;;;;;;;;3.10;100.00;100835.53;5071364;28;19951;-65
2021/03/16 08:48:11;;;;;;;;;;;;;;;3.17;100.00;100838.78;5071152;28;19935;-65
2021/03/16 08:50:56;;;;;;;;;;;;;;;3.34;100.00;100835.25;5053106;28;20009;-65
2021/03/16 08:53:44;;;;;;;;;;;;;;;3.41;100.00;100836.72;5071736;28;19981;-65
2021/03/16 08:56:29;;;;;;;;;;;;;;;3.58;100.00;100843.03;5084362;28;19931;-64
2021/03/16 08:59:13;;;;;;;;;;;;;;;3.84;100.00;100842.59;5071109;28;20632;-65
2021/03/16 09:01:57;;;;;;;;;;;;;;;4.13;100.00;100840.22;5072221;28;19946;-65
2021/03/16 09:04:42;;;;;;;;;;;;;;;4.31;100.00;100838.38;5088402;28;19974;-65
2021/03/16 09:07:27;;;;;;;;;;;;;;;4.26;100.00;100843.16;5074104;28;20389;-65
2021/03/16 09:10:13;;;;;;;;;;;;;;;4.13;100.00;100847.41;5074048;28;19939;-65
2021/03/16 09:12:58;;;;;;;;;;;;;;;3.96;100.00;100851.84;5080403;28;19932;-65
2021/03/16 09:15:43;;;;;;;;;;;;;;;4.04;100.00;100858.66;5065675;28;20305;-65
2021/03/16 09:18:32;;;;;;;;;;;;;;;4.16;100.00;100849.94;5071590;28;19978;-66
2021/03/16 09:21:16;;;;;;;;;;;;;;;4.45;100.00;100855.56;5051283;28;20275;-66
2021/03/16 09:24:03;;;;;;;;;;;;;;;4.80;100.00;100867.13;5071258;28;19981;-66
2021/03/16 09:26:51;;;;;;;;;;;;;;;4.64;100.00;100859.00;5070935;28;19993;-65
2021/03/16 09:29:36;;;;;;;;;;;;;;;4.33;100.00;100855.28;5051316;28;19931;-65
2021/03/16 09:32:21;;;;;;;;;;;;;;;4.03;100.00;100857.75;5057925;28;19924;-66
2021/03/16 09:35:06;;;;;;;;;;;;;;;4.06;100.00;100862.97;5089975;28;19977;-65
2021/03/16 09:37:52;;;;;;;;;;;;;;;4.39;100.00;100867.53;5071137;28;19974;-65
2021/03/16 09:40:38;;;;;;;;;;;;;;;4.46;100.00;100866.28;5067534;28;19955;-65
2021/03/16 09:43:16;;;;;;;;;;;;;;;4.49;100.00;100874.16;5057138;28;19928;-66
2021/03/16 09:45:49;;;;;;;;;;;;;;;4.55;100.00;100878.34;5051835;28;19925;-65
2021/03/16 09:48:17;;;;;;;;;;;;;;;4.67;100.00;100874.13;5066645;28;19924;-66
2021/03/16 09:50:44;;;;;;;;;;;;;;;4.70;100.00;100876.63;5093118;28;19958;-66
2021/03/16 09:53:12;;;;;;;;;;;;;;;4.50;100.00;100875.91;5085885;28;19939;-66
2021/03/16 09:55:38;;;;;;;;;;;;;;;4.65;100.00;100881.38;5082323;28;19924;-65
2021/03/16 09:58:04;;;;;;;;;;;;;;;5.12;100.00;100874.38;5076977;28;19932;-65
2021/03/16 10:00:30;;;;;;;;;;;;;;;5.52;100.00;100880.19;5075107;28;19928;-66
2021/03/16 10:03:03;;;;;;;;;;;;;;;6.58;100.00;100875.69;5074734;28;20013;-66
2021/03/16 10:05:28;;;;;;;;;;;;;;;7.03;100.00;100862.09;5089131;28;20381;-66
2021/03/16 10:07:54;;;;;;;;;;;;;;;6.76;100.00;100873.69;5074578;28;19924;-66
2021/03/16 10:10:21;;;;;;;;;;;;;;;6.43;100.00;100895.53;5074439;28;19928;-67
2021/03/16 10:12:52;;;;;;;;;;;;;;;6.43;100.00;100890.13;5074427;28;19950;-67
2021/03/16 10:15:26;;;;;;;;;;;;;;;6.20;100.00;100878.94;5074509;28;19928;-65
2021/03/16 10:17:53;;;;;;;;;;;;;;;6.29;100.00;100883.72;5075253;28;19925;-65
2021/03/16 10:20:22;;;;;;;;;;;;;;;6.57;100.00;100883.88;5074243;28;19924;-65
2021/03/16 10:22:52;;;;;;;;;;;;;;;7.10;100.00;100882.31;5090567;28;19924;-65
2021/03/16 10:25:17;;;;;;;;;;;;;;;7.57;100.00;100885.59;5094541;28;19931;-65
2021/03/16 10:27:53;;;;;;;;;;;;;;;7.61;100.00;100886.25;5078407;28;20011;-65
2021/03/16 10:30:27;;;;;;;;;;;;;;;7.73;100.00;100890.00;5079024;28;19971;-66
2021/03/16 10:32:53;;;;;;;;;;;;;;;8.37;100.00;100879.31;5057399;28;20009;-65
2021/03/16 10:35:19;;;;;;;;;;;;;;;8.54;100.00;100884.44;5074179;28;19947;-66
2021/03/16 10:37:45;;;;;;;;;;;;;;;9.78;100.00;100886.38;5074157;28;20011;-65
2021/03/16 10:40:11;;;;;;;;;;;;;;;9.92;100.00;100882.59;5073745;28;19925;-66
2021/03/16 10:42:37;;;;;;;;;;;;;;;10.12;98.18;100891.06;5073937;28;20510;-66
2021/03/16 10:45:03;;;;;;;;;;;;;;;10.15;100.00;100891.66;5073929;28;19931;-66
2021/03/16 10:47:30;;;;;;;;;;;;;;;9.04;97.02;100881.81;5082704;28;19977;-65
2021/03/16 10:49:56;;;;;;;;;;;;;;;10.38;100.00;100892.66;5090660;28;20389;-65
2021/03/16 10:52:21;;;;;;;;;;;;;;;10.14;97.06;100900.81;5093944;28;20016;-66
2021/03/16 10:54:47;;;;;;;;;;;;;;;8.92;97.35;100895.38;5084504;28;19950;-65
2021/03/16 10:57:13;;;;;;;;;;;;;;;7.74;100.00;100906.09;5072813;28;19928;-66
2021/03/16 10:59:39;;;;;;;;;;;;;;;8.30;100.00;100892.41;5082184;28;19927;-65
2021/03/16 11:02:05;;;;;;;;;;;;;;;8.27;100.00;100883.63;5074620;28;19986;-65
2021/03/16 11:04:33;;;;;;;;;;;;;;;9.09;100.00;100886.91;5086113;28;20393;-65
2021/03/16 11:06:59;;;;;;;;;;;;;;;9.76;100.00;100896.44;5073009;28;19962;-66
2021/03/16 11:09:25;;;;;;;;;;;;;;;9.14;100.00;100889.25;5072843;28;19924;-65
2021/03/16 11:11:51;;;;;;;;;;;;;;;9.21;99.47;100888.72;5073154;28;20019;-65
2021/03/16 11:14:16;;;;;;;;;;;;;;;9.37;100.00;100885.75;5073237;28;20441;-65
2021/03/16 11:16:42;;;;;;;;;;;;;;;8.92;98.09;100890.81;5072973;28;19954;-65
2021/03/16 11:19:08;;;;;;;;;;;;;;;8.48;100.00;100898.41;5070801;28;19956;-65
2021/03/16 11:21:35;;;;;;;;;;;;;;;8.37;100.00;100890.16;5067443;28;19932;-64
2021/03/16 11:24:01;;;;;;;;;;;;;;;7.60;100.00;100901.59;5072302;28;19986;-65
2021/03/16 11:26:27;;;;;;;;;;;;;;;7.80;100.00;100896.72;5064518;28;20461;-66
2021/03/16 11:28:54;;;;;;;;;;;;;;;7.55;100.00;100887.53;5087752;28;19933;-64
2021/03/16 11:31:19;;;;;;;;;;;;;;;7.60;100.00;100906.13;5080578;28;19928;-65
2021/03/16 11:34:04;;;;;;;;;;;;;;;7.27;100.00;100901.97;5072853;28;20079;-66
2021/03/16 11:36:49;;;;;;;;;;;;;;;6.89;100.00;100899.88;5074069;28;19947;-66
2021/03/16 11:39:34;;;;;;;;;;;;;;;7.23;100.00;100909.41;5083830;28;19935;-66
2021/03/16 11:42:18;;;;;;;;;;;;;;;7.35;100.00;100902.34;5077065;28;19931;-66
2021/03/16 11:45:03;;;;;;;;;;;;;;;7.70;100.00;100910.81;5072613;28;19931;-67
2021/03/16 11:47:48;;;;;;;;;;;;;;;7.92;100.00;100905.84;5086494;28;20053;-66
2021/03/16 11:50:32;;;;;;;;;;;;;;;7.64;100.00;100902.25;5088988;28;19940;-67
2021/03/16 11:53:17;;;;;;;;;;;;;;;7.43;100.00;100908.13;5071529;28;19971;-66
2021/03/16 11:56:02;;;;;;;;;;;;;;;7.71;100.00;100904.47;5051878;28;19932;-64
2021/03/16 11:58:46;;;;;;;;;;;;;;;7.60;100.00;100885.38;5064495;28;19982;-64
2021/03/16 12:01:31;;;;;;;;;;;;;;;7.79;100.00;100895.84;5061259;28;20062;-64
2021/03/16 12:04:15;;;;;;;;;;;;;;;7.85;100.00;100894.56;5072115;28;19936;-65
2021/03/16 12:07:01;;;;;;;;;;;;;;;7.88;100.00;100889.84;5051262;28;21455;-65
2021/03/16 12:09:46;;;;;;;;;;;;;;;7.12;100.00;100887.63;5065260;28;19931;-66
2021/03/16 12:12:30;;;;;;;;;;;;;;;7.34;100.00;100896.06;5078030;28;19951;-66
2021/03/16 12:15:16;;;;;;;;;;;;;;;7.92;100.00;100895.03;5071935;28;19928;-66
2021/03/16 12:18:01;;;;;;;;;;;;;;;7.98;100.00;100894.63;5051781;28;19971;-66
2021/03/16 12:20:46;;;;;;;;;;;;;;;7.73;100.00;100896.25;5067786;28;19977;-66
2021/03/16 12:23:30;;;;;;;;;;;;;;;7.56;100.00;100888.41;5071532;28;20023;-66
2021/03/16 12:26:16;;;;;;;;;;;;;;;7.24;100.00;100894.91;5078525;28;19931;-66
2021/03/16 12:29:00;;;;;;;;;;;;;;;6.94;100.00;100892.38;5053458;28;20365;-66
2021/03/16 12:31:45;;;;;;;;;;;;;;;6.84;100.00;100892.97;5071322;28;19947;-66
2021/03/16 12:34:29;;;;;;;;;;;;;;;7.01;100.00;100893.72;5086515;28;19932;-66
2021/03/16 12:37:13;;;;;;;;;;;;;;;7.15;100.00;100898.25;5089973;28;19947;-64
2021/03/16 12:39:58;;;;;;;;;;;;;;;7.36;100.00;100893.25;5091944;28;19931;-65
2021/03/16 12:42:43;;;;;;;;;;;;;;;7.33;100.00;100905.13;5079899;28;19947;-64
2021/03/16 12:45:27;;;;;;;;;;;;;;;7.52;100.00;100910.22;5071219;28;20091;-64
2021/03/16 12:48:12;;;;;;;;;;;;;;;7.27;100.00;100899.25;5066441;28;19972;-64
2021/03/16 12:50:56;;;;;;;;;;;;;;;6.91;100.00;100903.34;5072937;28;20026;-65
2021/03/16 12:53:41;;;;;;;;;;;;;;;7.01;100.00;100899.09;5065439;28;19947;-64
2021/03/16 12:56:25;;;;;;;;;;;;;;;7.23;100.00;100905.81;5069869;28;19955;-64
2021/03/16 12:59:10;;;;;;;;;;;;;;;7.61;100.00;100902.47;5079458;28;20005;-65
2021/03/16 13:01:55;;;;;;;;;;;;;;;7.97;100.00;100903.69;5088251;28;19943;-65
2021/03/16 13:04:39;;;;;;;;;;;;;;;8.28;100.00;100891.63;5072597;28;20027;-65
2021/03/16 13:07:24;;;;;;;;;;;;;;;8.06;99.46;100897.66;5077412;28;19924;-65
2021/03/16 13:10:09;;;;;;;;;;;;;;;7.94;100.00;100910.16;5074873;28;19974;-65
2021/03/16 13:12:53;;;;;;;;;;;;;;;7.96;100.00;100912.75;5075638;28;19931;-66
2021/03/16 13:15:39;;;;;;;;;;;;;;;7.44;100.00;100912.56;5088790;28;19944;-66
2021/03/16 13:18:23;;;;;;;;;;;;;;;7.25;100.00;100909.31;5091532;28;19947;-64
2021/03/16 13:21:08;;;;;;;;;;;;;;;7.11;100.00;100907.47;5084201;28;19930;-65
2021/03/16 13:23:53;;;;;;;;;;;;;;;6.91;100.00;100906.03;5074743;28;19974;-65
2021/03/16 13:26:37;;;;;;;;;;;;;;;6.66;100.00;100915.69;5074896;28;20011;-65
2021/03/16 13:29:22;;;;;;;;;;;;;;;6.51;100.00;100915.66;5079014;28;19931;-65
2021/03/16 13:32:08;;;;;;;;;;;;;;;6.45;100.00;100918.72;5061662;28;19932;-64
2021/03/16 13:34:53;;;;;;;;;;;;;;;6.65;100.00;100916.63;5074846;28;19931;-66
2021/03/16 13:37:37;;;;;;;;;;;;;;;6.73;100.00;100929.66;5054674;28;19947;-65
2021/03/16 13:40:22;;;;;;;;;;;;;;;6.78;100.00;100914.06;5057465;28;19975;-65
2021/03/16 13:43:06;;;;;;;;;;;;;;;6.96;100.00;100912.91;5095158;28;19935;-65